Time;durP1;ratioP1;P1;durP2;ratioP2;P2;SDS_P1;SDS_P2;PMS_P1;PMS_P2;Temp;Humidity;BMP_temperature;BMP_pressure;BME280_temperature;BME280_humidity;BME280_pressure;Samples;Min_cycle;Max_cycle;Signal;HPM_P1;HPM_P2
2022/05/20 00:39:16;;;;;;;16.52;12.38;;;13.60;99.90;;;;;;5046471;23;20195;-77
2022/05/20 00:41:41;;;;;;;14.95;11.90;;;13.60;99.90;;;;;;4917162;29;20048;-77
2022/05/20 00:44:07;;;;;;;18.80;12.13;;;13.60;99.90;;;;;;4885776;29;20051;-77
2022/05/20 00:46:33;;;;;;;14.38;11.57;;;13.70;99.90;;;;;;4902334;29;20126;-77
2022/05/20 00:49:10;;;;;;;15.13;12.10;;;13.70;99.90;;;;;;4868274;29;20044;-78
2022/05/20 00:51:43;;;;;;;16.73;11.60;;;13.70;99.90;;;;;;4902411;29;20036;-78
2022/05/20 00:54:21;;;;;;;16.40;12.10;;;13.60;99.90;;;;;;4904237;29;20040;-77
2022/05/20 00:57:07;;;;;;;15.88;12.20;;;13.60;99.90;;;;;;4906323;29;20047;-78
2022/05/20 00:59:34;;;;;;;;;;;13.70;99.90;;;;;;4892482;29;20476;-77
2022/05/20 01:02:06;;;;;;;16.05;11.18;;;13.60;99.90;;;;;;4906150;29;19958;-77
2022/05/20 01:04:33;;;;;;;14.20;11.52;;;13.60;99.90;;;;;;4905269;29;20035;-78
2022/05/20 01:06:59;;;;;;;15.15;12.35;;;13.70;99.90;;;;;;4890744;29;20094;-77
2022/05/20 01:09:25;;;;;;;13.15;11.75;;;13.70;99.90;;;;;;4921456;29;20054;-77
2022/05/20 01:11:52;;;;;;;15.23;12.48;;;13.70;99.90;;;;;;4894939;29;20051;-78
2022/05/20 01:14:23;;;;;;;15.18;11.32;;;13.70;99.90;;;;;;4904850;29;20119;-77
2022/05/20 01:16:49;;;;;;;16.38;12.02;;;13.70;99.90;;;;;;4904868;29;20106;-77
2022/05/20 01:19:39;;;;;;;16.83;11.52;;;13.70;99.90;;;;;;4886633;29;20040;-77
2022/05/20 01:22:07;;;;;;;14.43;11.75;;;13.70;99.90;;;;;;4904793;29;20048;-77
2022/05/20 01:24:34;;;;;;;13.05;11.13;;;13.70;99.90;;;;;;4914372;29;20044;-77
2022/05/20 01:26:59;;;;;;;15.48;11.82;;;13.70;99.90;;;;;;4905184;29;20051;-77
2022/05/20 01:29:26;;;;;;;16.52;11.60;;;13.70;99.90;;;;;;4877481;29;20392;-78
2022/05/20 01:31:52;;;;;;;18.70;11.50;;;13.70;99.90;;;;;;4885358;29;20052;-77
2022/05/20 01:34:17;;;;;;;12.60;10.10;;;13.70;99.90;;;;;;4886238;29;20051;-78
2022/05/20 01:36:43;;;;;;;16.80;12.23;;;13.80;99.90;;;;;;4903306;29;20123;-77
2022/05/20 01:39:09;;;;;;;21.45;13.25;;;13.70;99.90;;;;;;4883368;29;20515;-78
2022/05/20 01:41:41;;;;;;;14.30;11.93;;;13.70;99.90;;;;;;4902101;29;20048;-78
2022/05/20 01:44:13;;;;;;;13.85;10.48;;;13.70;99.90;;;;;;4900870;29;20377;-78
2022/05/20 01:46:49;;;;;;;17.13;12.23;;;13.70;99.90;;;;;;4915035;29;20036;-77
2022/05/20 01:49:42;;;;;;;13.38;11.65;;;13.60;99.90;;;;;;4904072;29;20530;-78
2022/05/20 01:52:12;;;;;;;14.63;10.93;;;13.60;99.90;;;;;;4886951;29;20503;-78
2022/05/20 01:55:00;;;;;;;14.48;12.75;;;13.50;99.90;;;;;;4884688;29;20124;-77
2022/05/20 01:57:43;;;;;;;18.77;12.63;;;13.50;99.90;;;;;;4893719;29;20044;-77
2022/05/20 02:00:21;;;;;;;16.60;13.30;;;13.40;99.90;;;;;;4900977;29;20052;-77
2022/05/20 02:02:50;;;;;;;17.83;12.82;;;13.30;99.90;;;;;;4884538;29;20051;-78
2022/05/20 02:05:48;;;;;;;16.42;12.52;;;13.30;99.90;;;;;;4884494;29;20040;-78
2022/05/20 02:08:29;;;;;;;19.50;13.07;;;13.30;99.90;;;;;;4901864;29;20392;-77
2022/05/20 02:10:55;;;;;;;15.52;11.88;;;13.20;99.90;;;;;;4894143;29;20047;-77
2022/05/20 02:13:23;;;;;;;16.08;12.65;;;13.20;99.90;;;;;;4901002;29;20389;-77
2022/05/20 02:15:59;;;;;;;16.45;12.75;;;13.10;99.90;;;;;;4870845;29;20052;-77
2022/05/20 02:18:33;;;;;;;;;;;13.10;99.90;;;;;;4901763;29;20132;-77
2022/05/20 02:21:05;;;;;;;16.65;12.57;;;13.10;99.90;;;;;;4899852;29;19924;-77
2022/05/20 02:23:37;;;;;;;16.33;13.25;;;13.00;99.90;;;;;;4900133;29;20040;-78
2022/05/20 02:26:07;;;;;;;14.30;12.50;;;13.00;99.90;;;;;;4889126;29;20112;-77
2022/05/20 02:28:45;;;;;;;14.15;12.00;;;12.90;99.90;;;;;;4897489;29;20096;-78
2022/05/20 02:31:16;;;;;;;18.45;13.32;;;12.90;99.90;;;;;;4888343;29;20044;-77
2022/05/20 02:33:42;;;;;;;15.73;13.05;;;12.90;99.90;;;;;;4893178;29;20126;-77
2022/05/20 02:36:24;;;;;;;18.13;14.48;;;12.80;99.90;;;;;;4884395;29;20131;-77
2022/05/20 02:38:50;;;;;;;16.58;13.32;;;12.70;99.90;;;;;;4899560;29;20044;-77
2022/05/20 02:41:16;;;;;;;16.65;14.02;;;12.70;99.90;;;;;;4841837;29;20040;-78
2022/05/20 02:43:43;;;;;;;18.70;13.80;;;12.60;99.90;;;;;;4862359;29;20508;-77
2022/05/20 02:46:09;;;;;;;17.95;13.73;;;12.60;99.90;;;;;;4862185;29;20829;-78
2022/05/20 02:48:36;;;;;;;16.02;14.10;;;12.60;99.90;;;;;;4867903;29;20032;-77
2022/05/20 02:51:02;;;;;;;18.85;13.55;;;12.60;99.90;;;;;;4896906;29;20095;-77
2022/05/20 02:53:28;;;;;;;18.17;13.55;;;12.50;99.90;;;;;;4878609;29;20041;-77
2022/05/20 02:55:54;;;;;;;17.38;13.82;;;12.50;99.90;;;;;;4855228;29;20054;-77
2022/05/20 03:04:09;;;;;;;19.20;13.98;;;12.40;99.90;;;;;;4877089;29;20090;-78
2022/05/20 03:06:36;;;;;;;23.60;14.55;;;12.30;99.90;;;;;;4894764;29;20467;-78
2022/05/20 03:09:03;;;;;;;19.52;13.82;;;12.30;99.90;;;;;;4871909;29;20458;-77
2022/05/20 03:11:29;;;;;;;19.52;14.68;;;12.30;99.90;;;;;;4862964;29;20040;-77
2022/05/20 03:13:54;;;;;;;16.77;13.70;;;12.30;99.90;;;;;;4844306;29;20117;-77
2022/05/20 03:16:20;;;;;;;16.95;13.95;;;12.20;99.90;;;;;;4874559;29;20127;-77
2022/05/20 03:18:46;;;;;;;18.38;13.73;;;12.20;99.90;;;;;;4849413;29;20091;-77
2022/05/20 03:21:11;;;;;;;19.75;14.00;;;12.20;99.90;;;;;;4851198;29;20044;-77
2022/05/20 03:23:37;;;;;;;17.88;13.85;;;12.20;99.90;;;;;;4850133;29;20495;-77
2022/05/20 03:26:04;;;;;;;18.90;14.18;;;12.10;99.90;;;;;;4891390;29;20523;-77
2022/05/20 03:28:30;;;;;;;17.52;13.48;;;12.10;99.90;;;;;;4877982;29;20553;-77
2022/05/20 03:31:03;;;;;;;19.10;14.05;;;12.10;99.90;;;;;;4852222;29;20121;-76
2022/05/20 03:33:29;;;;;;;18.42;14.70;;;12.10;99.90;;;;;;4868045;29;20049;-78
2022/05/20 03:35:54;;;;;;;17.33;14.25;;;12.00;99.90;;;;;;4868026;29;20531;-77
2022/05/20 03:38:20;;;;;;;18.45;14.65;;;12.00;99.90;;;;;;4865174;29;20052;-77
2022/05/20 03:40:46;;;;;;;17.17;14.18;;;12.00;99.90;;;;;;4866064;29;20053;-77
2022/05/20 03:43:12;;;;;;;15.90;13.43;;;12.00;99.90;;;;;;4857810;29;20041;-77
2022/05/20 03:45:42;;;;;;;15.32;13.63;;;12.00;99.90;;;;;;4890608;29;20040;-78
2022/05/20 03:48:08;;;;;;;18.00;14.25;;;12.00;99.90;;;;;;4858130;29;20561;-78
2022/05/20 03:50:34;;;;;;;15.13;13.50;;;11.90;99.90;;;;;;4849287;29;20052;-77
2022/05/20 03:53:00;;;;;;;16.00;13.77;;;11.90;99.90;;;;;;4865836;29;21990;-78
2022/05/20 03:55:26;;;;;;;15.88;13.48;;;11.90;99.90;;;;;;4879539;29;20068;-77
2022/05/20 03:57:52;;;;;;;15.43;13.18;;;12.00;99.90;;;;;;4863191;29;20070;-77
2022/05/20 04:00:19;;;;;;;15.02;13.52;;;11.90;99.90;;;;;;4864393;29;20037;-77
2022/05/20 04:02:44;;;;;;;16.67;13.95;;;11.90;99.90;;;;;;4847916;29;20044;-77
2022/05/20 04:05:11;;;;;;;16.15;14.15;;;11.90;99.90;;;;;;4880698;29;20048;-77
2022/05/20 04:07:38;;;;;;;15.38;13.77;;;11.90;99.90;;;;;;4880929;29;20480;-77
2022/05/20 04:10:06;;;;;;;14.95;13.40;;;12.00;99.90;;;;;;4881054;29;20060;-77
2022/05/20 04:12:42;;;;;;;15.30;13.50;;;12.00;99.90;;;;;;4892659;29;20457;-77
2022/05/20 04:15:11;;;;;;;15.95;13.90;;;12.00;99.90;;;;;;4862802;29;20077;-78
2022/05/20 04:17:37;;;;;;;19.83;15.57;;;12.00;99.90;;;;;;4895421;29;20526;-77
2022/05/20 04:20:04;;;;;;;15.00;13.35;;;12.00;99.90;;;;;;4879939;29;20051;-77
2022/05/20 04:22:34;;;;;;;15.63;13.50;;;12.00;99.90;;;;;;4880483;29;20033;-77
2022/05/20 04:25:00;;;;;;;16.63;14.30;;;12.00;99.90;;;;;;4895035;29;20592;-78
2022/05/20 04:27:27;;;;;;;17.80;15.65;;;11.90;99.90;;;;;;4880802;29;20040;-77
2022/05/20 04:29:53;;;;;;;18.17;14.60;;;11.90;99.90;;;;;;4891214;29;20080;-77
2022/05/20 04:32:19;;;;;;;18.55;15.20;;;11.90;99.90;;;;;;4838962;29;20041;-77
2022/05/20 04:34:45;;;;;;;17.33;14.77;;;11.90;99.90;;;;;;4878277;29;20056;-77
2022/05/20 04:37:11;;;;;;;17.80;14.52;;;11.90;99.90;;;;;;4879701;29;20413;-77
2022/05/20 04:39:36;;;;;;;19.77;14.48;;;12.00;99.90;;;;;;4868406;29;20075;-77
2022/05/20 04:47:32;;;;;;;16.90;14.48;;;11.90;99.90;;;;;;4868780;29;20084;-77
2022/05/20 04:49:58;;;;;;;14.82;13.38;;;11.90;99.90;;;;;;4871249;29;20045;-77
2022/05/20 04:52:23;;;;;;;16.75;14.75;;;11.90;99.90;;;;;;4880106;29;20105;-77
2022/05/20 04:54:50;;;;;;;16.73;14.75;;;12.00;99.90;;;;;;4887160;29;20076;-77
2022/05/20 04:57:35;;;;;;;14.45;13.05;;;11.90;99.90;;;;;;4888970;29;20047;-77
2022/05/20 05:00:25;;;;;;;14.52;13.00;;;11.90;99.90;;;;;;4874929;29;20044;-77
2022/05/20 05:02:52;;;;;;;14.50;12.98;;;12.00;99.90;;;;;;4880846;29;20072;-77
2022/05/20 05:05:21;;;;;;;15.00;13.40;;;12.00;99.90;;;;;;4880922;29;20461;-78
2022/05/20 05:07:49;;;;;;;15.00;13.48;;;12.00;99.90;;;;;;4880622;29;20118;-78
2022/05/20 05:10:23;;;;;;;15.93;14.18;;;12.10;99.90;;;;;;4879763;29;20059;-77
2022/05/20 05:12:50;;;;;;;14.52;13.02;;;12.10;99.90;;;;;;4880382;29;20056;-78
2022/05/20 05:15:15;;;;;;;14.07;12.68;;;12.20;99.90;;;;;;4880429;29;20051;-78
2022/05/20 05:20:29;;;;;;;14.63;13.20;;;12.20;99.90;;;;;;4867067;29;20045;-77
2022/05/20 05:22:57;;;;;;;14.13;12.68;;;12.30;99.90;;;;;;4880771;29;20044;-77
2022/05/20 05:25:25;;;;;;;13.55;12.25;;;12.30;99.90;;;;;;4880341;29;20189;-77
2022/05/20 05:27:52;;;;;;;16.83;13.98;;;12.40;99.90;;;;;;4864911;29;20100;-77
2022/05/20 05:30:18;;;;;;;15.00;13.40;;;12.40;99.90;;;;;;4879821;29;20096;-77
2022/05/20 05:32:45;;;;;;;18.55;14.27;;;12.50;99.90;;;;;;4871933;29;20068;-77
2022/05/20 05:35:14;;;;;;;19.90;15.38;;;12.60;99.90;;;;;;4879773;29;20123;-77
2022/05/20 05:37:41;;;;;;;20.52;15.73;;;12.70;99.90;;;;;;4878327;29;20051;-76
2022/05/20 05:40:11;;;;;;;18.60;15.98;;;12.80;99.90;;;;;;4882131;29;20064;-77
2022/05/20 05:42:37;;;;;;;19.67;15.10;;;12.90;99.90;;;;;;4900860;29;20051;-77
2022/05/20 05:45:04;;;;;;;19.50;15.35;;;13.00;99.90;;;;;;4899338;29;20138;-78
2022/05/20 05:47:30;;;;;;;20.15;14.88;;;13.10;99.90;;;;;;4892868;29;20042;-78
2022/05/20 05:49:56;;;;;;;20.52;16.23;;;13.20;99.90;;;;;;4885503;29;20530;-78
2022/05/20 05:52:22;;;;;;;25.70;16.70;;;13.30;99.90;;;;;;4918765;29;20510;-78
2022/05/20 05:54:48;;;;;;;21.50;17.30;;;13.50;99.90;;;;;;4857536;29;20060;-78
2022/05/20 05:57:13;;;;;;;24.40;17.35;;;13.50;99.90;;;;;;4883579;29;20178;-78
2022/05/20 05:59:40;;;;;;;20.08;16.77;;;13.40;99.90;;;;;;4870507;29;20036;-78
2022/05/20 06:02:08;;;;;;;20.30;16.10;;;13.50;99.90;;;;;;4871741;29;20100;-77
2022/05/20 06:04:34;;;;;;;17.95;15.45;;;13.60;99.90;;;;;;4877224;29;20374;-77
2022/05/20 06:07:01;;;;;;;18.45;15.73;;;13.60;99.90;;;;;;4876354;29;20388;-79
2022/05/20 06:09:27;;;;;;;20.23;15.85;;;13.70;99.90;;;;;;4878495;29;20552;-78
2022/05/20 06:11:53;;;;;;;21.25;16.15;;;13.70;99.90;;;;;;4882746;29;20051;-78
2022/05/20 06:14:19;;;;;;;19.73;17.30;;;13.80;99.90;;;;;;4883345;29;21016;-78
2022/05/20 06:16:45;;;;;;;18.48;16.10;;;13.80;99.90;;;;;;4917434;29;20096;-78
2022/05/20 06:19:11;;;;;;;19.20;15.85;;;13.90;99.90;;;;;;4900663;29;20043;-78
2022/05/20 06:21:40;;;;;;;19.08;15.68;;;14.00;99.90;;;;;;4887915;29;20066;-78
2022/05/20 06:24:08;;;;;;;19.30;14.10;;;14.10;99.90;;;;;;4900037;29;20067;-79
2022/05/20 06:26:36;;;;;;;16.70;12.95;;;14.20;99.90;;;;;;4882458;29;20040;-78
2022/05/20 06:29:03;;;;;;;19.15;13.40;;;14.30;99.90;;;;;;4889120;29;20048;-77
2022/05/20 06:31:28;;;;;;;16.77;13.70;;;14.50;99.90;;;;;;4893634;29;20078;-77
2022/05/20 06:33:54;;;;;;;17.02;13.60;;;14.50;99.90;;;;;;4870976;29;20076;-77
2022/05/20 06:41:49;;;;;;;17.10;12.07;;;14.80;99.90;;;;;;4901734;29;20070;-79
2022/05/20 06:44:15;;;;;;;18.02;13.20;;;14.80;99.90;;;;;;4886524;29;20197;-78
2022/05/20 06:46:41;;;;;;;16.15;12.02;;;14.80;99.90;;;;;;4886050;29;20044;-78
2022/05/20 06:49:07;;;;;;;15.15;11.27;;;14.70;99.90;;;;;;4881889;29;20547;-78
2022/05/20 06:51:36;;;;;;;16.10;12.27;;;14.70;99.90;;;;;;4882560;29;20051;-79
2022/05/20 06:54:04;;;;;;;17.00;12.52;;;14.70;99.90;;;;;;4883169;29;20076;-78
2022/05/20 06:56:31;;;;;;;16.77;12.88;;;14.70;99.90;;;;;;4898349;29;20055;-78
2022/05/20 06:58:58;;;;;;;19.15;12.95;;;14.70;99.90;;;;;;4885278;29;20043;-77
2022/05/20 07:01:24;;;;;;;16.85;13.68;;;14.80;99.90;;;;;;4881175;29;20033;-77
2022/05/20 07:03:50;;;;;;;17.77;12.82;;;14.80;99.90;;;;;;4879904;29;20083;-79
2022/05/20 07:06:16;;;;;;;17.92;12.48;;;14.90;99.90;;;;;;4879606;29;20048;-80
2022/05/20 07:08:48;;;;;;;17.27;12.27;;;14.90;99.90;;;;;;4860644;29;20044;-80
2022/05/20 07:11:15;;;;;;;15.68;12.07;;;15.00;99.90;;;;;;4893796;29;20122;-78
2022/05/20 07:13:41;;;;;;;15.15;12.15;;;15.00;99.90;;;;;;4860677;29;20062;-78
2022/05/20 07:16:08;;;;;;;16.85;12.95;;;15.10;99.90;;;;;;4875528;29;20596;-78
2022/05/20 07:18:34;;;;;;;17.00;12.48;;;15.20;99.90;;;;;;4864333;29;20040;-78
2022/05/20 07:21:01;;;;;;;15.98;12.43;;;15.30;99.90;;;;;;4888942;29;20131;-78
2022/05/20 07:23:29;;;;;;;16.35;12.43;;;15.50;99.90;;;;;;4876956;29;20040;-78
2022/05/20 07:25:55;;;;;;;16.52;11.73;;;15.60;99.90;;;;;;4877285;29;20040;-78
2022/05/20 07:28:21;;;;;;;18.30;11.85;;;15.80;99.90;;;;;;4882398;29;20684;-77
2022/05/20 07:30:47;;;;;;;15.10;11.85;;;15.80;99.90;;;;;;4893644;29;20051;-78
2022/05/20 07:33:13;;;;;;;14.73;10.98;;;15.90;99.90;;;;;;4879035;29;20055;-77
2022/05/20 07:35:39;;;;;;;14.65;11.13;;;16.10;99.90;;;;;;4887453;29;20048;-77
2022/05/20 07:38:07;;;;;;;14.45;10.70;;;16.40;99.90;;;;;;4895513;29;20421;-78
2022/05/20 07:40:33;;;;;;;11.32;10.05;;;16.70;99.90;;;;;;4892489;29;21232;-81
2022/05/20 07:42:59;;;;;;;12.77;9.98;;;16.90;99.90;;;;;;4889250;29;20052;-80
2022/05/20 07:45:25;;;;;;;12.82;10.00;;;16.90;99.90;;;;;;4848282;29;20048;-81
2022/05/20 07:47:50;;;;;;;13.80;10.95;;;17.00;99.90;;;;;;4876008;29;20126;-79
2022/05/20 07:50:16;;;;;;;12.88;10.75;;;17.10;99.90;;;;;;4894369;29;20050;-80
2022/05/20 07:55:45;;;;;;;12.55;9.73;;;17.50;99.90;;;;;;4903965;29;20047;-79
2022/05/20 07:58:14;;;;;;;11.93;10.52;;;17.70;99.90;;;;;;4891957;29;20131;-81
2022/05/20 08:00:41;;;;;;;11.90;9.77;;;17.90;99.90;;;;;;4894102;29;20123;-82
2022/05/20 08:03:10;;;;;;;13.57;8.52;;;18.10;99.90;;;;;;4890931;29;20107;-82
2022/05/20 08:05:36;;;;;;;16.10;8.75;;;18.10;99.90;;;;;;4893645;29;20055;-82
2022/05/20 08:08:06;;;;;;;12.73;7.85;;;18.00;99.90;;;;;;4892569;29;20091;-82
2022/05/20 08:10:35;;;;;;;12.93;9.40;;;17.90;99.90;;;;;;4878532;29;20036;-82
2022/05/20 08:13:02;;;;;;;13.27;9.30;;;17.80;99.90;;;;;;4896052;29;20052;-82
2022/05/20 08:15:31;;;;;;;14.35;9.98;;;17.70;99.90;;;;;;4880122;29;20036;-83
2022/05/20 08:17:57;;;;;;;13.02;9.45;;;17.50;99.90;;;;;;4879308;29;20059;-82
2022/05/20 08:20:28;;;;;;;10.40;8.05;;;17.40;99.90;;;;;;4881700;29;20040;-82
2022/05/20 08:22:55;;;;;;;11.45;8.85;;;17.30;99.90;;;;;;4892479;29;20048;-81
2022/05/20 08:25:22;;;;;;;11.63;10.02;;;17.20;99.90;;;;;;4878018;29;20040;-83
2022/05/20 08:27:48;;;;;;;15.20;10.02;;;17.10;99.90;;;;;;4878355;29;20047;-82
2022/05/20 08:30:23;;;;;;;10.40;8.45;;;17.30;99.90;;;;;;4894998;29;20115;-81
2022/05/20 08:32:48;;;;;;;10.32;7.40;;;17.60;99.90;;;;;;4892119;29;20063;-82
2022/05/20 08:35:14;;;;;;;12.90;7.85;;;17.80;99.90;;;;;;4892340;29;20118;-82
2022/05/20 08:37:43;;;;;;;11.43;8.10;;;17.90;99.90;;;;;;4874094;29;20044;-82
2022/05/20 08:40:17;;;;;;;11.65;8.25;;;18.10;99.90;;;;;;4883115;29;20381;-83
2022/05/20 08:42:43;;;;;;;10.65;7.72;;;18.40;99.90;;;;;;4892791;29;21169;-82
2022/05/20 08:45:11;;;;;;;11.45;8.40;;;18.60;99.90;;;;;;4877912;29;20044;-83
2022/05/20 08:47:41;;;;;;;9.73;7.43;;;18.70;99.90;;;;;;4875866;29;20076;-82
2022/05/20 08:50:13;;;;;;;9.52;7.40;;;18.80;99.90;;;;;;4877914;29;20461;-83
2022/05/20 08:52:39;;;;;;;10.38;7.75;;;18.90;99.90;;;;;;4893652;29;20050;-81
2022/05/20 08:55:05;;;;;;;10.50;7.45;;;18.90;99.90;;;;;;4860831;29;20131;-78
2022/05/20 08:57:33;;;;;;;10.38;7.40;;;19.00;99.90;;;;;;4876871;29;20426;-80
2022/05/20 09:00:02;;;;;;;10.63;8.10;;;19.00;99.90;;;;;;4874406;29;20714;-87
2022/05/20 09:02:27;;;;;;;8.75;6.93;;;19.20;99.90;;;;;;4865234;29;20160;-85
2022/05/20 09:04:53;;;;;;;10.43;7.15;;;19.20;99.90;;;;;;4878713;29;20063;-81
2022/05/20 09:07:20;;;;;;;10.95;7.85;;;19.30;99.90;;;;;;4875758;29;20040;-81
2022/05/20 09:09:50;;;;;;;9.68;7.55;;;19.40;99.90;;;;;;4882181;29;20379;-81
2022/05/20 09:12:36;;;;;;;7.90;6.68;;;19.40;99.90;;;;;;4904714;29;20492;-81
2022/05/20 09:18:18;;;;;;;10.80;7.65;;;19.60;99.90;;;;;;4885584;29;20497;-83
2022/05/20 09:20:49;;;;;;;9.65;6.68;;;19.60;99.90;;;;;;4869090;29;20123;-80
2022/05/20 09:23:20;;;;;;;8.75;6.95;;;19.60;99.90;;;;;;4896151;29;20468;-79
2022/05/20 09:26:07;;;;;;;9.85;6.93;;;19.60;99.90;;;;;;4875030;29;20040;-79
2022/05/20 09:28:38;;;;;;;10.70;7.65;;;19.60;99.90;;;;;;4902528;29;20044;-80
2022/05/20 09:31:25;;;;;;;9.63;7.15;;;19.60;99.90;;;;;;4879627;29;20058;-80
2022/05/20 09:34:09;;;;;;;9.30;7.18;;;19.60;99.90;;;;;;4888085;29;20048;-80
2022/05/20 09:36:43;;;;;;;9.52;6.80;;;19.60;99.90;;;;;;4903842;29;20048;-80
2022/05/20 09:39:14;;;;;;;9.05;6.53;;;19.50;99.90;;;;;;4886215;29;20072;-80
2022/05/20 09:41:50;;;;;;;9.25;7.25;;;19.50;99.90;;;;;;4886781;29;20088;-79
2022/05/20 09:44:19;;;;;;;10.93;7.00;;;19.40;99.90;;;;;;4888485;29;20055;-80
2022/05/20 09:47:03;;;;;;;8.23;6.68;;;19.30;99.90;;;;;;4904961;29;20070;-80
2022/05/20 09:50:10;;;;;;;10.98;6.78;;;19.20;99.90;;;;;;4903552;29;20099;-80
2022/05/20 09:52:50;;;;;;;8.00;6.75;;;19.20;99.90;;;;;;4883124;29;20143;-80
2022/05/20 09:55:33;;;;;;;10.38;7.15;;;19.20;99.90;;;;;;4903531;29;20048;-81
2022/05/20 09:58:15;;;;;;;9.77;7.03;;;19.20;99.90;;;;;;4903520;29;20051;-80
2022/05/20 10:00:53;;;;;;;8.68;6.82;;;19.30;99.90;;;;;;4901921;29;20048;-80
2022/05/20 10:03:37;;;;;;;7.43;5.72;;;19.30;99.90;;;;;;4887591;29;20365;-80
2022/05/20 10:06:23;;;;;;;8.43;6.07;;;19.30;99.90;;;;;;4887955;29;20052;-80
2022/05/20 10:09:02;;;;;;;10.65;6.90;;;19.40;99.90;;;;;;4887491;29;20135;-80
2022/05/20 10:11:35;;;;;;;10.13;6.55;;;19.40;99.90;;;;;;4899788;29;20044;-80
2022/05/20 10:14:19;;;;;;;8.13;6.28;;;19.60;99.90;;;;;;4884690;29;20044;-80
2022/05/20 10:16:58;;;;;;;9.85;6.88;;;19.60;99.90;;;;;;4885541;29;20044;-80
2022/05/20 10:20:02;;;;;;;10.43;6.43;;;19.60;99.90;;;;;;4887814;29;20091;-80
2022/05/20 10:22:48;;;;;;;10.52;6.40;;;19.70;99.90;;;;;;4889146;29;20100;-79
2022/05/20 10:25:32;;;;;;;9.77;7.00;;;19.80;99.90;;;;;;4902943;29;20036;-79
2022/05/20 10:32:34;;;;;;;8.90;6.95;;;19.80;99.90;;;;;;4886805;29;20055;-80
2022/05/20 10:34:02;;;;;;;8.52;6.45;;;19.90;99.90;;;;;;4903132;29;20047;-80
2022/05/20 10:36:38;;;;;;;9.43;6.53;;;20.00;99.90;;;;;;4856327;29;20044;-80
2022/05/20 10:39:34;;;;;;;8.50;6.30;;;20.00;99.90;;;;;;4868161;29;20048;-80
2022/05/20 10:42:24;;;;;;;8.23;5.10;;;20.00;99.90;;;;;;4867756;29;20063;-80
2022/05/20 10:51:04;;;;;;;7.75;5.88;;;20.00;99.90;;;;;;4902907;29;20122;-80
2022/05/20 10:53:59;;;;;;;7.78;5.90;;;20.10;99.90;;;;;;4903157;29;20051;-80
2022/05/20 10:56:47;;;;;;;7.95;6.38;;;20.10;99.90;;;;;;4882087;29;20071;-80
2022/05/20 10:59:43;;;;;;;8.57;6.30;;;20.10;99.90;;;;;;4883541;29;20045;-80
2022/05/20 11:02:46;;;;;;;10.32;7.43;;;20.20;99.90;;;;;;4883312;29;20632;-80
2022/05/20 11:05:30;;;;;;;7.65;6.22;;;20.20;99.90;;;;;;4883712;29;20052;-80
2022/05/20 11:08:28;;;;;;;10.63;7.25;;;20.30;99.90;;;;;;4893591;29;20048;-80
2022/05/20 11:11:09;;;;;;;11.35;6.45;;;20.50;99.90;;;;;;4901788;29;20047;-80
2022/05/20 11:13:41;;;;;;;7.70;6.10;;;20.60;99.90;;;;;;4886400;29;20086;-80
2022/05/20 11:16:25;;;;;;;9.50;6.50;;;20.70;99.90;;;;;;4901483;29;20052;-80
2022/05/20 11:19:20;;;;;;;8.18;6.85;;;20.80;99.50;;;;;;4900485;29;20047;-80
2022/05/20 11:22:04;;;;;;;6.35;5.05;;;20.70;99.10;;;;;;4900420;29;20566;-80
2022/05/20 11:25:07;;;;;;;6.85;4.90;;;20.70;97.80;;;;;;4885554;29;20088;-80
2022/05/20 11:27:51;;;;;;;6.28;3.38;;;20.80;97.30;;;;;;4894298;29;20044;-80
2022/05/20 11:30:38;;;;;;;6.30;4.35;;;20.90;94.40;;;;;;4882631;29;20056;-80
2022/05/20 11:33:27;;;;;;;5.60;4.30;;;20.90;94.30;;;;;;4867862;29;20076;-80
2022/05/20 11:36:21;;;;;;;10.43;6.10;;;20.90;94.90;;;;;;4868673;29;20051;-80
2022/05/20 11:39:26;;;;;;;7.22;5.93;;;21.00;94.70;;;;;;4869680;29;20047;-80
2022/05/20 11:42:25;;;;;;;7.95;5.78;;;21.00;95.60;;;;;;4901459;29;20060;-80
2022/05/20 11:45:11;;;;;;;8.13;6.00;;;20.90;95.60;;;;;;4899796;29;20504;-80
2022/05/20 11:47:56;;;;;;;;;;;21.00;95.90;;;;;;4917109;29;20048;-80
2022/05/20 11:50:45;;;;;;;9.27;5.90;;;20.90;96.00;;;;;;4885435;29;19942;-80
2022/05/20 11:53:44;;;;;;;7.68;5.53;;;20.90;95.60;;;;;;4900445;29;20047;-80
2022/05/20 11:56:29;;;;;;;10.27;6.40;;;20.80;96.70;;;;;;4900632;29;20518;-80
2022/05/20 11:59:38;;;;;;;7.17;5.83;;;20.80;96.30;;;;;;4885657;29;20067;-80
2022/05/20 12:02:09;;;;;;;8.48;6.30;;;20.80;96.60;;;;;;4885516;29;20681;-80
2022/05/20 12:04:37;;;;;;;6.50;5.72;;;20.80;96.70;;;;;;4880821;29;20040;-80
2022/05/20 12:07:15;;;;;;;9.77;6.55;;;20.90;97.30;;;;;;4869386;29;20052;-80
2022/05/20 12:09:52;;;;;;;8.50;5.90;;;20.90;97.60;;;;;;4885183;29;20052;-80
2022/05/20 12:12:24;;;;;;;7.93;5.65;;;21.00;96.30;;;;;;4900699;29;20496;-80
2022/05/20 12:14:59;;;;;;;8.85;5.97;;;21.00;95.90;;;;;;4899099;29;20056;-80
2022/05/20 12:17:44;;;;;;;7.30;5.22;;;21.00;96.40;;;;;;4880535;29;20119;-80
2022/05/20 12:26:07;;;;;;;6.78;5.60;;;21.30;95.10;;;;;;4891925;29;20130;-80
2022/05/20 12:28:39;;;;;;;7.50;5.68;;;21.30;94.60;;;;;;4900640;29;20087;-80
2022/05/20 12:31:15;;;;;;;8.00;5.43;;;21.40;94.20;;;;;;4870009;29;20044;-80
2022/05/20 12:34:07;;;;;;;7.63;5.03;;;21.40;94.70;;;;;;4884385;29;20048;-80
2022/05/20 12:36:40;;;;;;;5.90;5.30;;;21.50;94.30;;;;;;4866339;29;20044;-80
2022/05/20 12:39:09;;;;;;;6.65;5.63;;;21.50;92.80;;;;;;4888269;29;20492;-79
2022/05/20 12:41:49;;;;;;;9.93;6.00;;;21.50;92.20;;;;;;4881681;29;20057;-80
2022/05/20 12:44:21;;;;;;;8.45;5.95;;;21.40;92.20;;;;;;4866468;29;20044;-80
2022/05/20 12:47:05;;;;;;;6.47;4.93;;;21.30;92.20;;;;;;4867266;29;20048;-80
2022/05/20 12:49:34;;;;;;;6.05;4.60;;;21.20;90.90;;;;;;4882928;29;20072;-80
2022/05/20 12:52:19;;;;;;;5.80;4.60;;;21.10;91.00;;;;;;4870869;29;20068;-79
2022/05/20 12:55:00;;;;;;;6.57;5.10;;;20.90;90.50;;;;;;4880272;29;20048;-80
2022/05/20 12:57:34;;;;;;;5.97;4.68;;;20.80;90.60;;;;;;4869370;29;20048;-79
2022/05/20 13:00:12;;;;;;;6.80;4.95;;;20.70;90.00;;;;;;4883704;29;20044;-80
2022/05/20 13:02:52;;;;;;;5.70;5.10;;;20.60;90.20;;;;;;4881745;29;20037;-79
2022/05/20 13:05:33;;;;;;;6.47;5.50;;;20.50;90.70;;;;;;4852115;29;20041;-79
2022/05/20 13:08:02;;;;;;;8.93;5.97;;;20.40;91.00;;;;;;4862942;29;20493;-80
2022/05/20 13:10:37;;;;;;;7.30;6.60;;;20.30;90.90;;;;;;4881689;29;20053;-79
2022/05/20 13:13:13;;;;;;;7.53;6.28;;;20.20;91.00;;;;;;4861883;29;20175;-80
2022/05/20 13:15:47;;;;;;;6.93;6.15;;;20.10;91.40;;;;;;4870745;29;20453;-79
2022/05/20 13:18:22;;;;;;;10.00;6.97;;;19.90;91.40;;;;;;4868789;29;20110;-80
2022/05/20 13:20:50;;;;;;;7.38;6.32;;;19.80;92.10;;;;;;4870368;29;20068;-79
2022/05/20 13:23:27;;;;;;;10.55;7.78;;;19.80;92.60;;;;;;4885222;29;20064;-79
2022/05/20 13:25:53;;;;;;;10.23;7.45;;;19.70;93.60;;;;;;4869846;29;20041;-79
2022/05/20 13:28:36;;;;;;;8.65;7.50;;;19.60;94.10;;;;;;4869061;29;20056;-79
2022/05/20 13:31:20;;;;;;;9.57;8.48;;;19.50;94.60;;;;;;4868381;29;20489;-79
2022/05/20 13:33:46;;;;;;;11.80;8.43;;;19.50;96.10;;;;;;4865483;29;20048;-80
2022/05/20 13:36:17;;;;;;;10.45;8.48;;;19.30;97.90;;;;;;4884826;29;20041;-79
2022/05/20 13:39:04;;;;;;;11.25;9.20;;;19.10;98.70;;;;;;4863720;29;20033;-79
2022/05/20 13:41:32;;;;;;;10.43;9.43;;;18.90;99.90;;;;;;4890801;29;20103;-79
2022/05/20 13:44:04;;;;;;;11.65;10.15;;;18.70;99.90;;;;;;4904079;29;20136;-79
2022/05/20 13:49:20;;;;;;;17.23;11.10;;;18.40;99.90;;;;;;4901642;29;20138;-79
2022/05/20 13:51:53;;;;;;;16.48;11.07;;;18.20;99.90;;;;;;4902597;29;20404;-80
2022/05/20 13:54:20;;;;;;;17.95;11.23;;;18.00;99.90;;;;;;4898107;29;20043;-78
2022/05/20 13:56:49;;;;;;;18.48;11.75;;;18.00;99.90;;;;;;4901632;29;20048;-78
2022/05/20 13:59:22;;;;;;;16.27;11.93;;;18.00;99.90;;;;;;4901419;29;20134;-78
2022/05/20 14:02:09;;;;;;;14.60;10.90;;;18.00;99.90;;;;;;4901676;29;20048;-79
2022/05/20 14:04:49;;;;;;;18.35;11.88;;;17.90;99.90;;;;;;4885843;29;20716;-79
2022/05/20 14:07:27;;;;;;;17.10;11.55;;;17.90;99.90;;;;;;4883889;29;20048;-79
2022/05/20 14:10:10;;;;;;;19.48;13.02;;;17.80;99.90;;;;;;4892002;29;20048;-80
2022/05/20 14:12:45;;;;;;;19.02;13.15;;;17.70;99.90;;;;;;4888559;29;20055;-79
2022/05/20 14:15:17;;;;;;;;;;;17.40;99.90;;;;;;4887027;29;20094;-79
2022/05/20 14:17:43;;;;;;;21.17;13.40;;;17.30;99.90;;;;;;4902712;29;19929;-80
2022/05/20 14:20:13;;;;;;;16.20;12.73;;;17.30;99.90;;;;;;4877131;29;20393;-79
2022/05/20 14:22:40;;;;;;;22.45;13.57;;;17.40;99.90;;;;;;4867850;29;20047;-79
2022/05/20 14:25:17;;;;;;;18.45;14.18;;;17.50;99.90;;;;;;4886271;29;20489;-79